Time;durP1;ratioP1;P1;durP2;ratioP2;P2;SDS_P1;SDS_P2;PMS_P1;PMS_P2;Temp;Humidity;BMP_temperature;BMP_pressure;BME280_temperature;BME280_humidity;BME280_pressure;Samples;Min_cycle;Max_cycle;Signal;HPM_P1;HPM_P2
2022/09/21 00:01:27;;;;;;;;;18.50;15.50;;;;;26.66;100.00;101426.47;5078360;27;51160;-61
2022/09/21 00:04:11;;;;;;;;;17.00;13.00;;;;;26.64;100.00;101425.69;5076989;27;51199;-60
2022/09/21 00:06:56;;;;;;;;;15.75;12.75;;;;;26.64;100.00;101417.50;5077402;27;51167;-61
2022/09/21 00:09:40;;;;;;;;;17.00;14.75;;;;;26.64;100.00;101418.38;5075815;27;51203;-61
2022/09/21 00:12:25;;;;;;;;;16.75;13.75;;;;;26.65;100.00;101417.41;5075992;27;51097;-60
2022/09/21 00:15:10;;;;;;;;;15.75;13.25;;;;;26.66;100.00;101412.81;5076569;27;51169;-61
2022/09/21 00:17:56;;;;;;;;;16.50;13.00;;;;;26.67;100.00;101420.03;5076740;27;51148;-61
2022/09/21 00:20:44;;;;;;;;;18.00;13.00;;;;;26.65;100.00;101406.50;5073695;27;51029;-62
2022/09/21 00:23:28;;;;;;;;;14.00;13.00;;;;;26.65;100.00;101421.97;5077196;27;51482;-61
2022/09/21 00:26:19;;;;;;;;;17.25;15.50;;;;;26.65;100.00;101414.69;5077777;27;51303;-61
2022/09/21 00:29:04;;;;;;;;;18.75;14.00;;;;;26.66;100.00;101408.25;5077182;27;51547;-61
2022/09/21 00:31:48;;;;;;;;;20.00;15.00;;;;;26.65;100.00;101401.03;5072401;27;51175;-60
2022/09/21 00:34:33;;;;;;;;;14.75;14.50;;;;;26.66;100.00;101399.19;5078552;27;51211;-60
2022/09/21 00:37:19;;;;;;;;;14.50;13.50;;;;;26.58;100.00;101392.34;5077409;27;51156;-60
2022/09/21 00:40:04;;;;;;;;;16.50;14.00;;;;;26.64;100.00;101407.47;5078259;27;51064;-62
2022/09/21 00:42:49;;;;;;;;;13.50;12.25;;;;;26.61;100.00;101400.31;5076672;27;51126;-60
2022/09/21 00:45:33;;;;;;;;;17.75;12.75;;;;;26.61;100.00;101404.91;5076693;27;51109;-61
2022/09/21 00:48:18;;;;;;;;;14.75;12.25;;;;;26.61;100.00;101410.38;5076384;27;51224;-60
2022/09/21 00:51:06;;;;;;;;;20.00;14.00;;;;;26.60;100.00;101400.44;5078338;27;51215;-60
2022/09/21 00:53:54;;;;;;;;;15.50;15.25;;;;;26.60;100.00;101394.97;5078642;27;51468;-60
2022/09/21 00:56:39;;;;;;;;;18.75;14.00;;;;;26.57;100.00;101401.50;5080233;27;51256;-61
2022/09/21 00:59:23;;;;;;;;;14.25;12.25;;;;;26.56;100.00;101399.75;5079776;27;51022;-60
2022/09/21 01:02:08;;;;;;;;;13.25;11.75;;;;;26.58;100.00;101402.38;5064773;27;51159;-60
2022/09/21 01:04:53;;;;;;;;;17.00;14.50;;;;;26.52;100.00;101392.69;5076722;27;51138;-60
2022/09/21 01:07:42;;;;;;;;;13.75;13.75;;;;;26.59;100.00;101407.75;5080979;27;51235;-60
2022/09/21 01:10:34;;;;;;;;;17.00;14.00;;;;;26.59;100.00;101406.84;5082409;27;51104;-61
2022/09/21 01:13:41;;;;;;;;;16.00;10.00;;;;;26.59;100.00;101412.31;5080978;27;51183;-62
2022/09/21 01:16:38;;;;;;;;;19.50;14.00;;;;;26.50;100.00;101385.59;5081104;27;51310;-61
2022/09/21 01:19:35;;;;;;;;;17.00;13.00;;;;;26.61;100.00;101397.59;5081207;27;51263;-60
2022/09/21 01:22:50;;;;;;;;;18.25;15.00;;;;;26.64;100.00;101395.66;5079850;27;51130;-61
2022/09/21 01:25:47;;;;;;;;;9.50;8.50;;;;;26.64;100.00;101395.66;5079075;27;51497;-61
2022/09/21 01:28:42;;;;;;;;;18.25;13.50;;;;;26.66;100.00;101393.72;5076446;27;51126;-61
2022/09/21 01:31:33;;;;;;;;;18.25;14.00;;;;;26.68;100.00;101394.50;5078017;27;51171;-61
2022/09/21 01:34:32;;;;;;;;;13.00;12.75;;;;;26.70;100.00;101395.31;5079252;27;51147;-60
2022/09/21 01:37:24;;;;;;;;;15.00;12.50;;;;;26.67;100.00;101384.56;5077903;27;51208;-62
2022/09/21 01:40:39;;;;;;;;;13.75;11.50;;;;;26.74;100.00;101391.38;5074736;27;51201;-60
2022/09/21 01:43:27;;;;;;;;;16.50;13.00;;;;;26.73;100.00;101389.63;5079724;27;51167;-61
2022/09/21 01:46:17;;;;;;;;;14.75;14.00;;;;;26.69;100.00;101379.88;5079519;27;51149;-60
2022/09/21 01:49:09;;;;;;;;;15.50;13.00;;;;;26.76;100.00;101401.25;5077438;27;51094;-60
2022/09/21 01:52:06;;;;;;;;;16.00;13.00;;;;;26.74;100.00;101396.84;5079425;27;52102;-61
2022/09/21 01:55:09;;;;;;;;;20.25;15.00;;;;;26.77;100.00;101391.22;5079485;27;51549;-61
2022/09/21 01:57:59;;;;;;;;;16.50;13.75;;;;;26.83;100.00;101399.03;5080554;27;51521;-60
2022/09/21 02:00:47;;;;;;;;;14.25;12.75;;;;;26.85;100.00;101407.16;5078983;27;51325;-61
2022/09/21 02:03:39;;;;;;;;;20.00;14.50;;;;;26.85;100.00;101402.56;5079259;27;51132;-61
2022/09/21 02:06:25;;;;;;;;;22.25;13.00;;;;;26.84;100.00;101391.75;5079176;27;51114;-61
2022/09/21 02:09:10;;;;;;;;;17.25;12.00;;;;;26.83;100.00;101398.19;5075152;27;51253;-61
2022/09/21 02:11:57;;;;;;;;;12.25;11.00;;;;;26.81;100.00;101397.38;5078178;27;51539;-60
2022/09/21 02:14:41;;;;;;;;;17.00;13.75;;;;;26.80;100.00;101384.69;5077059;27;51275;-61
2022/09/21 02:17:33;;;;;;;;;20.00;14.50;;;;;26.80;100.00;101387.44;5079060;27;51106;-60
2022/09/21 02:20:29;;;;;;;;;20.75;13.25;;;;;26.80;100.00;101392.91;5078621;27;51372;-61
2022/09/21 02:23:32;;;;;;;;;14.50;12.50;;;;;26.74;100.00;101386.81;5079799;27;51363;-60
2022/09/21 02:26:24;;;;;;;;;14.50;12.00;;;;;26.74;100.00;101386.81;5077769;27;51204;-61
2022/09/21 02:29:37;;;;;;;;;14.50;13.00;;;;;26.77;100.00;101385.75;5077681;27;51288;-62
2022/09/21 02:32:27;;;;;;;;;18.75;13.75;;;;;26.74;100.00;101386.81;5075182;27;51346;-61
2022/09/21 02:35:21;;;;;;;;;16.00;12.00;;;;;26.73;100.00;101382.34;5075274;27;51170;-61
2022/09/21 02:38:31;;;;;;;;;14.75;13.25;;;;;26.72;100.00;101379.72;5080037;27;51066;-61
2022/09/21 02:41:35;;;;;;;;;19.75;13.50;;;;;26.71;100.00;101388.88;5079126;27;51148;-61
2022/09/21 02:44:41;;;;;;;;;15.75;11.00;;;;;26.67;100.00;101384.56;5081012;27;51072;-61
2022/09/21 02:47:32;;;;;;;;;15.00;12.50;;;;;26.66;100.00;101389.16;5081026;27;51159;-61
2022/09/21 02:50:22;;;;;;;;;14.50;14.00;;;;;26.65;100.00;101391.97;5081351;27;51588;-60
2022/09/21 02:53:09;;;;;;;;;13.50;12.00;;;;;26.62;100.00;101395.75;5079926;27;51106;-61
2022/09/21 02:55:56;;;;;;;;;14.75;12.50;;;;;26.62;100.00;101395.75;5081259;27;52161;-60
2022/09/21 02:58:44;;;;;;;;;17.50;13.00;;;;;26.60;100.00;101398.59;5079834;27;51139;-61
2022/09/21 03:01:31;;;;;;;;;17.75;14.00;;;;;26.63;100.00;101402.09;5080897;27;51206;-61
2022/09/21 03:04:16;;;;;;;;;14.75;13.00;;;;;26.62;100.00;101393.03;5080840;27;51073;-62
2022/09/21 03:07:00;;;;;;;;;17.75;14.50;;;;;26.62;100.00;101390.31;5081305;27;51173;-60
2022/09/21 03:09:45;;;;;;;;;15.75;13.00;;;;;26.59;100.00;101396.84;5080020;27;51184;-61
2022/09/21 03:12:31;;;;;;;;;19.00;14.50;;;;;26.60;100.00;101387.69;5080851;27;51042;-61
2022/09/21 03:15:17;;;;;;;;;12.25;12.25;;;;;26.57;100.00;101384.22;5081050;27;51193;-60
2022/09/21 03:18:03;;;;;;;;;16.50;13.75;;;;;26.59;100.00;101390.47;5074019;27;51162;-60
2022/09/21 03:20:48;;;;;;;;;16.00;13.75;;;;;26.51;100.00;101381.88;5080048;27;51102;-61
2022/09/21 03:23:32;;;;;;;;;14.25;13.75;;;;;26.57;100.00;101395.16;5078423;27;51493;-61
2022/09/21 03:26:21;;;;;;;;;14.25;13.00;;;;;26.58;100.00;101397.81;5076285;27;51054;-60
2022/09/21 03:29:05;;;;;;;;;15.25;12.50;;;;;26.60;100.00;101405.88;5074260;27;51173;-62
2022/09/21 03:31:51;;;;;;;;;12.00;10.00;;;;;26.60;100.00;101401.31;5080496;27;51144;-60
2022/09/21 03:34:36;;;;;;;;;11.75;9.50;;;;;26.66;100.00;101402.81;5080074;27;51506;-61
2022/09/21 03:37:20;;;;;;;;;16.25;14.75;;;;;26.67;100.00;101399.06;5078815;27;51535;-61
2022/09/21 03:40:05;;;;;;;;;15.50;15.25;;;;;26.68;100.00;101398.09;5079475;27;51265;-61
2022/09/21 03:42:49;;;;;;;;;12.00;10.00;;;;;26.66;100.00;101397.34;5080035;27;51147;-61
2022/09/21 03:45:34;;;;;;;;;20.25;14.00;;;;;26.65;100.00;101405.59;5078767;27;51038;-61
2022/09/21 03:48:20;;;;;;;;;18.00;13.75;;;;;26.63;100.00;101397.53;5078355;27;51214;-60
2022/09/21 03:51:04;;;;;;;;;17.25;13.75;;;;;26.65;100.00;101411.97;5078659;27;51180;-61
2022/09/21 03:53:49;;;;;;;;;14.75;11.25;;;;;26.67;100.00;101407.25;5079561;27;51104;-61
2022/09/21 03:56:33;;;;;;;;;15.50;13.50;;;;;26.71;100.00;101416.16;5080216;27;51070;-60
2022/09/21 03:59:18;;;;;;;;;21.00;16.50;;;;;26.72;100.00;101417.94;5080063;27;51152;-61
2022/09/21 04:02:02;;;;;;;;;16.50;13.00;;;;;26.74;100.00;101429.59;5079921;27;51228;-60
2022/09/21 04:04:46;;;;;;;;;15.75;12.50;;;;;26.73;100.00;101420.56;5080028;27;51680;-61
2022/09/21 04:07:33;;;;;;;;;20.25;14.00;;;;;26.68;100.00;101419.06;5074329;27;51128;-61
2022/09/21 04:10:20;;;;;;;;;16.75;14.25;;;;;26.70;100.00;101425.31;5080143;27;51203;-60
2022/09/21 04:13:05;;;;;;;;;18.75;15.00;;;;;26.69;100.00;101427.16;5079300;27;51117;-61
2022/09/21 04:15:49;;;;;;;;;16.75;12.50;;;;;26.72;100.00;101428.84;5079767;27;51106;-60
2022/09/21 04:18:35;;;;;;;;;16.75;13.75;;;;;26.72;100.00;101426.13;5074061;27;51146;-61
2022/09/21 04:21:21;;;;;;;;;18.25;15.25;;;;;26.66;100.00;101430.09;5080047;27;51271;-60
2022/09/21 04:24:05;;;;;;;;;17.25;15.00;;;;;26.74;100.00;101435.97;5074852;27;51609;-61
2022/09/21 04:26:50;;;;;;;;;16.00;15.00;;;;;26.72;100.00;101437.91;5073450;27;51202;-61
2022/09/21 04:29:35;;;;;;;;;17.00;14.00;;;;;26.73;100.00;101434.19;5071752;27;51737;-61
2022/09/21 04:32:20;;;;;;;;;20.25;15.75;;;;;26.72;100.00;101437.03;5073959;27;51125;-61
2022/09/21 04:35:04;;;;;;;;;19.00;13.50;;;;;26.69;100.00;101432.63;5075263;27;51218;-61
2022/09/21 04:37:49;;;;;;;;;16.00;14.00;;;;;26.72;100.00;101445.22;5077137;27;51470;-61
2022/09/21 04:40:33;;;;;;;;;17.50;14.00;;;;;26.70;100.00;101444.44;5073160;27;51073;-61
2022/09/21 04:43:17;;;;;;;;;13.75;13.50;;;;;26.66;100.00;101440.13;5076977;27;51303;-61
2022/09/21 04:46:07;;;;;;;;;17.50;15.25;;;;;26.60;100.00;101430.44;5072191;27;52563;-60
2022/09/21 04:48:52;;;;;;;;;16.25;15.25;;;;;26.66;100.00;101443.75;5076597;27;51434;-61
2022/09/21 04:51:36;;;;;;;;;18.00;15.75;;;;;26.63;100.00;101446.66;5076440;27;51160;-60
2022/09/21 04:54:20;;;;;;;;;18.00;14.75;;;;;26.63;100.00;101441.19;5075537;27;51093;-61
2022/09/21 04:57:05;;;;;;;;;21.50;18.00;;;;;26.62;100.00;101447.63;5076932;27;51239;-61
2022/09/21 04:59:49;;;;;;;;;19.50;15.50;;;;;26.60;100.00;101452.28;5077653;27;51040;-59
2022/09/21 05:02:34;;;;;;;;;14.25;14.25;;;;;26.56;100.00;101462.50;5069467;27;51584;-61
2022/09/21 05:05:18;;;;;;;;;14.75;14.00;;;;;26.55;100.00;101459.88;5072320;27;51157;-60
2022/09/21 05:08:03;;;;;;;;;21.75;15.00;;;;;26.52;100.00;101466.38;5074226;27;51454;-62
2022/09/21 05:10:47;;;;;;;;;13.25;13.00;;;;;26.50;100.00;101468.34;5075211;27;51132;-61
2022/09/21 05:13:32;;;;;;;;;18.25;14.25;;;;;26.51;100.00;101471.94;5076017;27;51639;-61
2022/09/21 05:16:17;;;;;;;;;18.75;12.50;;;;;26.48;100.00;101472.13;5078903;28;51238;-62
2022/09/21 05:19:02;;;;;;;;;25.00;18.00;;;;;26.50;100.00;101478.38;5072796;27;51114;-61
2022/09/21 05:21:47;;;;;;;;;16.50;15.25;;;;;26.50;100.00;101492.00;5077803;27;51172;-61
2022/09/21 05:24:31;;;;;;;;;18.50;16.25;;;;;26.49;100.00;101503.91;5078240;28;51176;-61
2022/09/21 05:27:16;;;;;;;;;19.25;17.25;;;;;26.49;100.00;101509.34;5075290;27;51019;-61
2022/09/21 05:30:00;;;;;;;;;17.00;15.75;;;;;26.49;100.00;101507.53;5073244;27;51615;-60
2022/09/21 05:32:48;;;;;;;;;24.50;19.25;;;;;26.50;100.00;101505.66;5070801;27;51237;-60
2022/09/21 05:35:55;;;;;;;;;25.50;18.00;;;;;26.49;100.00;101506.63;5069078;27;51160;-61
2022/09/21 05:38:40;;;;;;;;;24.50;19.00;;;;;26.49;100.00;101506.63;5073132;27;51761;-60
2022/09/21 05:41:25;;;;;;;;;19.25;16.75;;;;;26.49;100.00;101512.09;5077226;27;51211;-61
2022/09/21 05:44:13;;;;;;;;;21.25;17.00;;;;;26.51;100.00;101519.19;5081242;27;51593;-60
2022/09/21 05:47:06;;;;;;;;;23.25;23.25;;;;;26.53;100.00;101519.13;5079938;27;51114;-61
2022/09/21 05:50:18;;;;;;;;;22.75;18.25;;;;;26.56;100.00;101524.41;5074012;27;51386;-60
2022/09/21 05:53:23;;;;;;;;;23.75;16.50;;;;;26.59;100.00;101524.22;5066927;27;51226;-61
2022/09/21 05:56:41;;;;;;;;;23.50;19.00;;;;;26.67;100.00;101532.81;5077865;27;51257;-62
2022/09/21 05:59:32;;;;;;;;;24.75;20.75;;;;;26.72;100.00;101538.91;5076201;27;51206;-61
2022/09/21 06:02:43;;;;;;;;;23.50;20.50;;;;;26.78;100.00;101540.44;5080228;27;51185;-60
2022/09/21 06:05:28;;;;;;;;;17.50;15.00;;;;;26.84;100.00;101541.91;5069794;27;51336;-60
2022/09/21 06:08:12;;;;;;;;;18.00;16.25;;;;;26.86;100.00;101546.31;5075830;27;51287;-60
2022/09/21 06:10:57;;;;;;;;;20.00;16.75;;;;;26.95;100.00;101552.19;5069984;27;51070;-61
2022/09/21 06:13:41;;;;;;;;;17.75;16.00;;;;;26.99;100.00;101560.09;5068122;27;51354;-61
2022/09/21 06:16:26;;;;;;;;;23.25;18.75;;;;;27.05;100.00;101572.50;5075924;27;51286;-61
2022/09/21 06:19:12;;;;;;;;;22.50;21.00;;;;;27.11;100.00;101574.88;5076052;27;51142;-61
2022/09/21 06:21:57;;;;;;;;;29.00;26.00;;;;;27.19;100.00;101567.09;5070798;27;51072;-61
2022/09/21 06:24:41;;;;;;;;;31.25;22.50;;;;;27.31;100.00;101578.25;5074634;27;51164;-61
2022/09/21 06:27:27;;;;;;;;;44.25;37.50;;;;;27.41;100.00;101582.16;5073880;27;51474;-60
2022/09/21 06:30:12;;;;;;;;;58.75;47.25;;;;;27.50;100.00;101586.22;5076288;27;51460;-61
2022/09/21 06:32:59;;;;;;;;;61.50;50.00;;;;;27.59;100.00;101587.47;5079600;27;51162;-61
2022/09/21 06:35:43;;;;;;;;;65.75;51.00;;;;;27.72;100.00;101593.94;5075257;27;51676;-61
2022/09/21 06:38:28;;;;;;;;;68.75;53.00;;;;;27.82;100.00;101589.66;5074057;27;51190;-60
2022/09/21 06:41:13;;;;;;;;;67.75;53.00;;;;;27.96;100.00;101586.03;5070773;27;51170;-61
2022/09/21 06:43:57;;;;;;;;;68.75;53.50;;;;;28.08;100.00;101595.38;5070211;27;51675;-61
2022/09/21 06:46:42;;;;;;;;;71.00;51.75;;;;;28.24;100.00;101597.09;5072943;27;51444;-60
2022/09/21 06:49:27;;;;;;;;;62.50;50.50;;;;;28.48;100.00;101605.53;5078987;27;51155;-60
2022/09/21 06:52:11;;;;;;;;;66.75;51.25;;;;;28.69;100.00;101583.19;5074842;27;51260;-60
2022/09/21 06:54:56;;;;;;;;;61.00;46.50;;;;;28.96;100.00;101593.31;5078786;27;51426;-61
2022/09/21 06:57:40;;;;;;;;;62.00;48.50;;;;;29.14;100.00;101591.16;5080974;27;51255;-61
2022/09/21 07:00:25;;;;;;;;;60.50;47.50;;;;;29.37;100.00;101597.81;5081345;27;51648;-62
2022/09/21 07:03:14;;;;;;;;;61.75;48.25;;;;;29.71;100.00;101591.78;5080220;27;51384;-61
2022/09/21 07:05:58;;;;;;;;;78.75;70.75;;;;;30.06;100.00;101592.00;5079331;27;51219;-60
2022/09/21 07:08:43;;;;;;;;;47.00;37.75;;;;;30.68;100.00;101582.00;5080970;27;51165;-59
2022/09/21 07:11:28;;;;;;;;;22.75;21.75;;;;;31.93;100.00;101582.41;5074320;27;51198;-61
2022/09/21 07:14:13;;;;;;;;;21.00;18.75;;;;;33.39;100.00;101567.50;5080273;27;51159;-61
2022/09/21 07:16:58;;;;;;;;;19.75;19.75;;;;;35.34;100.00;101549.69;5077678;27;51270;-62
2022/09/21 07:19:43;;;;;;;;;22.25;15.75;;;;;37.34;100.00;101535.19;5080963;27;51176;-61
2022/09/21 07:22:28;;;;;;;;;19.00;17.00;;;;;37.86;100.00;101532.53;5078264;27;51065;-59
2022/09/21 07:25:13;;;;;;;;;20.25;16.00;;;;;38.85;100.00;101532.84;5078960;27;51066;-59
2022/09/21 07:27:59;;;;;;;;;28.75;23.75;;;;;38.69;100.00;101551.25;5080846;27;51166;-59
2022/09/21 07:30:44;;;;;;;;;17.00;15.00;;;;;38.36;100.00;101555.88;5080302;27;51112;-58
2022/09/21 07:33:28;;;;;;;;;18.75;13.75;;;;;38.24;100.00;101567.28;5080093;27;51521;-59
2022/09/21 07:36:16;;;;;;;;;21.25;15.75;;;;;39.03;100.00;101558.59;5080604;27;51396;-59
2022/09/21 07:39:01;;;;;;;;;19.75;14.75;;;;;41.13;100.00;101557.38;5077643;27;51272;-59
2022/09/21 07:41:46;;;;;;;;;17.75;15.25;;;;;42.11;100.00;101565.78;5079058;27;51131;-59
2022/09/21 07:44:31;;;;;;;;;17.50;15.50;;;;;43.39;100.00;101549.44;5078336;27;51437;-59
2022/09/21 07:47:15;;;;;;;;;13.50;12.75;;;;;45.13;100.00;101552.88;5075627;27;51059;-58
2022/09/21 07:49:59;;;;;;;;;13.25;9.50;;;;;46.48;100.00;101558.13;5079490;27;51457;-61
2022/09/21 07:52:44;;;;;;;;;12.25;11.00;;;;;47.83;100.00;101549.38;5080441;27;51085;-60
2022/09/21 07:55:29;;;;;;;;;15.75;14.00;;;;;48.91;100.00;101554.38;5070662;27;51254;-62
2022/09/21 08:01:17;;;;;;;;;11.75;11.75;;;;;50.92;100.00;101560.69;5075171;27;51373;-60
2022/09/21 08:04:03;;;;;;;;;11.75;10.00;;;;;51.71;100.00;101570.97;5075376;27;51467;-60
2022/09/21 08:06:49;;;;;;;;;12.25;10.75;;;;;52.32;100.00;101566.34;5074279;27;51129;-49
2022/09/21 08:09:34;;;;;;;;;10.00;10.00;;;;;52.07;100.00;101579.97;5071777;27;51321;-49
2022/09/21 08:12:19;;;;;;;;;10.50;8.75;;;;;50.05;100.00;101581.41;5072389;27;51159;-51
2022/09/21 08:15:04;;;;;;;;;13.25;10.00;;;;;47.53;100.00;101579.19;5072006;27;51296;-50
2022/09/21 08:17:50;;;;;;;;;21.25;18.75;;;;;45.67;100.00;101578.16;5073729;27;51177;-46
2022/09/21 08:20:35;;;;;;;;;14.75;11.50;;;;;44.13;100.00;101577.91;5078470;27;51154;-50
2022/09/21 08:23:19;;;;;;;;;10.75;9.75;;;;;42.72;100.00;101588.84;5075320;27;51197;-50
2022/09/21 08:26:05;;;;;;;;;12.25;9.75;;;;;41.64;100.00;101598.59;5075682;27;51415;-48
2022/09/21 08:28:52;;;;;;;;;11.25;10.00;;;;;40.65;100.00;101592.97;5078026;27;51109;-51
2022/09/21 08:31:36;;;;;;;;;11.75;11.75;;;;;39.58;100.00;101597.84;5079293;27;51165;-51
2022/09/21 08:34:22;;;;;;;;;10.75;10.50;;;;;38.62;100.00;101611.38;5072277;27;51361;-48
2022/09/21 08:37:08;;;;;;;;;10.50;10.50;;;;;37.66;100.00;101608.63;5078677;27;51107;-51
2022/09/21 08:39:53;;;;;;;;;15.50;11.75;;;;;36.88;100.00;101621.28;5079582;28;51203;-51
2022/09/21 08:42:56;;;;;;;;;16.75;13.25;;;;;36.23;100.00;101611.16;5073254;28;51096;-49
2022/09/21 08:45:43;;;;;;;;;14.75;12.25;;;;;35.80;100.00;101618.16;5079457;28;51207;-51
2022/09/21 08:48:31;;;;;;;;;10.00;8.75;;;;;35.51;100.00;101619.97;5079362;28;51937;-47
2022/09/21 08:51:21;;;;;;;;;8.75;7.00;;;;;35.25;100.00;101628.00;5079125;28;51491;-49
2022/09/21 08:54:16;;;;;;;;;10.75;9.75;;;;;34.81;100.00;101625.63;5078719;28;51182;-51
2022/09/21 08:57:00;;;;;;;;;11.75;11.50;;;;;34.38;100.00;101624.94;5078870;28;51121;-51
2022/09/21 08:59:47;;;;;;;;;12.25;12.25;;;;;34.19;100.00;101636.78;5078760;28;51138;-52
2022/09/21 09:02:40;;;;;;;;;11.25;9.75;;;;;33.95;100.00;101639.88;5062572;28;51140;-51
2022/09/21 09:06:12;;;;;;;;;16.25;12.25;;;;;33.77;100.00;101628.56;5069949;27;51401;-51
2022/09/21 09:09:02;;;;;;;;;13.50;10.75;;;;;33.58;100.00;101637.59;5057899;27;51132;-50
2022/09/21 09:12:07;;;;;;;;;13.00;10.75;;;;;33.37;100.00;101636.59;5077899;27;51204;-50
2022/09/21 09:14:58;;;;;;;;;11.25;10.25;;;;;33.27;100.00;101635.59;5078029;27;51505;-49
2022/09/21 09:18:08;;;;;;;;;18.75;14.00;;;;;33.13;100.00;101641.44;5079419;27;51086;-51
2022/09/21 09:21:00;;;;;;;;;13.00;12.00;;;;;33.12;100.00;101642.44;5078316;27;51117;-53
2022/09/21 09:24:11;;;;;;;;;38.00;24.00;;;;;33.11;100.00;101636.06;5079903;27;51108;-52
2022/09/21 09:27:02;;;;;;;;;18.25;17.00;;;;;33.12;100.00;101639.69;5079970;27;51484;-50
2022/09/21 09:30:02;;;;;;;;;11.00;11.00;;;;;33.13;100.00;101641.44;5080140;27;51121;-51
2022/09/21 09:32:52;;;;;;;;;16.75;12.75;;;;;33.15;100.00;101645.78;5075377;27;52862;-50
2022/09/21 09:36:02;;;;;;;;;10.00;7.50;;;;;33.26;100.00;101644.88;5070176;27;51240;-53
2022/09/21 09:38:56;;;;;;;;;15.75;11.50;;;;;33.41;100.00;101644.56;5082327;27;51020;-46
2022/09/21 09:41:47;;;;;;;;;11.75;11.50;;;;;33.45;100.00;101638.66;5080915;27;51159;-49
2022/09/21 09:44:37;;;;;;;;;12.50;9.50;;;;;33.43;100.00;101643.47;5081428;27;51559;-49
2022/09/21 09:47:53;;;;;;;;;14.25;12.00;;;;;33.42;100.00;101627.03;5081548;27;51093;-47
2022/09/21 09:50:39;;;;;;;;;18.00;12.25;;;;;33.46;100.00;101618.34;5081482;27;51226;-48
2022/09/21 09:53:25;;;;;;;;;12.50;10.25;;;;;33.57;100.00;101613.75;5081343;27;51128;-50
2022/09/21 09:56:11;;;;;;;;;16.50;12.25;;;;;33.68;100.00;101619.22;5079494;27;51171;-51
2022/09/21 09:59:02;;;;;;;;;12.00;11.00;;;;;33.78;100.00;101606.34;5080887;27;51634;-49
2022/09/21 10:02:07;;;;;;;;;11.75;11.75;;;;;33.98;100.00;101609.22;5080598;27;51232;-50
2022/09/21 10:05:02;;;;;;;;;13.25;10.00;;;;;34.09;100.00;101600.84;5081858;27;51205;-48
2022/09/21 10:07:46;;;;;;;;;18.75;15.00;;;;;34.13;100.00;101593.13;5081593;27;51111;-50
2022/09/21 10:10:37;;;;;;;;;19.50;13.75;;;;;34.39;100.00;101601.88;5071297;27;51369;-48
2022/09/21 10:13:48;;;;;;;;;12.75;10.00;;;;;34.47;100.00;101597.50;5074605;27;51224;-49
2022/09/21 10:16:39;;;;;;;;;14.50;12.75;;;;;34.41;100.00;101591.53;5076895;27;51227;-50
2022/09/21 10:19:25;;;;;;;;;14.75;12.25;;;;;34.39;100.00;101584.38;5080632;27;51447;-49
2022/09/21 10:22:18;;;;;;;;;11.00;11.00;;;;;34.27;100.00;101561.53;5080283;27;51269;-50
2022/09/21 10:25:04;;;;;;;;;11.25;9.25;;;;;34.22;100.00;101573.00;5081077;27;51457;-50
2022/09/21 10:27:51;;;;;;;;;16.75;14.75;;;;;34.13;100.00;101560.00;5080836;27;51482;-49
2022/09/21 10:30:37;;;;;;;;;12.00;10.75;;;;;34.15;100.00;101569.03;5076833;27;51139;-48
2022/09/21 10:33:22;;;;;;;;;12.50;11.00;;;;;34.17;100.00;101563.38;5077948;27;51175;-56
2022/09/21 10:36:46;;;;;;;;;12.75;11.75;;;;;34.27;100.00;101567.06;5077810;27;51432;-51
2022/09/21 10:39:32;;;;;;;;;16.75;13.00;;;;;34.34;100.00;101548.88;5080637;27;51475;-49
2022/09/21 10:42:17;;;;;;;;;9.00;5.25;;;;;34.55;100.00;101537.72;5080177;27;51200;-51
2022/09/21 10:45:11;;;;;;;;;10.25;9.25;;;;;34.64;100.00;101537.91;5080372;27;51255;-48
2022/09/21 10:48:05;;;;;;;;;9.25;8.25;;;;;34.65;100.00;101535.00;5081483;27;51043;-49
2022/09/21 10:50:51;;;;;;;;;12.50;11.00;;;;;34.73;100.00;101531.50;5081416;27;51138;-49
2022/09/21 10:53:36;;;;;;;;;11.75;9.75;;;;;34.77;100.00;101524.66;5079537;27;51271;-50
2022/09/21 10:56:20;;;;;;;;;14.75;13.50;;;;;34.83;100.00;101517.66;5078387;27;51414;-49
2022/09/21 10:59:32;;;;;;;;;14.75;10.75;;;;;34.95;100.00;101515.66;5080612;27;51104;-51
2022/09/21 11:02:35;;;;;;;;;9.75;7.75;;;;;34.94;100.00;101498.19;5079668;27;51501;-50
2022/09/21 11:05:21;;;;;;;;;11.25;9.50;;;;;34.95;100.00;101494.41;5080692;27;51134;-47
2022/09/21 11:08:11;;;;;;;;;8.50;7.75;;;;;34.75;100.00;101483.34;5078745;27;51093;-51
2022/09/21 11:11:07;;;;;;;;;8.25;8.25;;;;;34.63;100.00;101467.94;5080599;27;51179;-51
2022/09/21 11:14:29;;;;;;;;;10.25;9.25;;;;;34.47;100.00;101465.75;5081264;27;51086;-50
2022/09/21 11:17:39;;;;;;;;;11.25;10.00;;;;;34.41;100.00;101461.69;5078230;27;51210;-49
2022/09/21 11:20:31;;;;;;;;;13.75;10.00;;;;;34.20;100.00;101455.38;5078683;27;51182;-51
2022/09/21 11:23:46;;;;;;;;;13.25;11.25;;;;;34.03;100.00;101434.84;5080673;27;51118;-48
2022/09/21 11:26:44;;;;;;;;;10.00;7.75;;;;;33.78;100.00;101434.38;5074102;27;51155;-49
2022/09/21 11:29:56;;;;;;;;;14.00;9.25;;;;;33.51;100.00;101438.63;5074001;27;51367;-50
2022/09/21 11:32:43;;;;;;;;;14.75;9.25;;;;;33.29;100.00;101445.19;5080092;27;51113;-51
2022/09/21 11:35:35;;;;;;;;;10.00;9.50;;;;;33.01;100.00;101442.13;5080270;27;51144;-48
2022/09/21 11:38:46;;;;;;;;;12.00;9.50;;;;;32.90;100.00;101451.34;5079052;27;51469;-49
2022/09/21 11:41:49;;;;;;;;;13.50;11.75;;;;;32.78;100.00;101453.25;5080118;27;51157;-49
2022/09/21 11:44:54;;;;;;;;;16.00;11.25;;;;;32.68;100.00;101452.31;5080792;27;51810;-50
2022/09/21 11:48:01;;;;;;;;;11.00;7.50;;;;;32.47;100.00;101452.28;5078455;27;51179;-47
2022/09/21 11:51:17;;;;;;;;;8.00;7.00;;;;;32.37;100.00;101452.22;5075760;27;51049;-49
2022/09/21 11:54:36;;;;;;;;;11.25;9.25;;;;;32.18;100.00;101442.69;5080459;27;51599;-49
2022/09/21 11:57:29;;;;;;;;;10.75;8.75;;;;;32.22;100.00;101448.84;5078651;27;51295;-46
2022/09/21 12:00:20;;;;;;;;;8.75;7.75;;;;;32.03;100.00;101433.00;5078519;27;51067;-47
2022/09/21 12:03:40;;;;;;;;;9.75;9.25;;;;;31.81;100.00;101432.91;5076872;27;51015;-45
2022/09/21 12:06:34;;;;;;;;;9.25;9.25;;;;;31.76;100.00;101426.03;5077629;27;51062;-49
2022/09/21 12:09:28;;;;;;;;;11.25;9.00;;;;;31.73;100.00;101426.31;5079899;27;51239;-47
2022/09/21 12:12:26;;;;;;;;;11.00;10.00;;;;;31.63;100.00;101415.16;5079033;27;51531;-50
2022/09/21 12:15:23;;;;;;;;;10.50;9.25;;;;;31.50;100.00;101410.66;5077561;27;51270;-49
2022/09/21 12:18:38;;;;;;;;;10.25;8.50;;;;;31.48;100.00;101401.66;5076157;27;51772;-49
2022/09/21 12:21:46;;;;;;;;;12.50;10.00;;;;;31.46;100.00;101400.06;5078791;27;51256;-47
2022/09/21 12:24:46;;;;;;;;;14.25;14.00;;;;;31.43;100.00;101392.94;5079435;27;51196;-51
2022/09/21 12:27:43;;;;;;;;;12.50;9.75;;;;;31.38;100.00;101387.81;5076167;27;51267;-48
2022/09/21 12:30:30;;;;;;;;;15.00;12.00;;;;;31.33;100.00;101379.06;5064023;27;51085;-48
2022/09/21 12:33:36;;;;;;;;;12.75;11.25;;;;;31.34;100.00;101378.06;5077877;27;51457;-48
2022/09/21 12:36:28;;;;;;;;;12.00;9.00;;;;;31.34;100.00;101368.94;5076441;27;51548;-50
2022/09/21 12:39:31;;;;;;;;;12.00;9.00;;;;;31.36;100.00;101353.22;5071458;27;51443;-48
2022/09/21 12:42:39;;;;;;;;;13.25;11.00;;;;;31.30;100.00;101359.19;5076433;28;51578;-51
2022/09/21 12:45:40;;;;;;;;;11.75;10.75;;;;;31.20;100.00;101357.19;5077041;27;51400;-52
2022/09/21 12:48:41;;;;;;;;;10.00;10.00;;;;;31.18;100.00;101348.19;5075803;27;51188;-48
2022/09/21 12:51:33;;;;;;;;;9.75;9.75;;;;;31.19;100.00;101338.09;5084092;27;51390;-46